createdAt,value
2022-08-19T00:00:02.411Z,26.13
2022-08-19T00:01:06.242Z,26.13
2022-08-19T00:02:07.785Z,26.12
2022-08-19T00:03:09.328Z,26.11
2022-08-19T00:04:11.222Z,26.11
2022-08-19T00:05:13.144Z,26.13
2022-08-19T00:06:14.935Z,26.10
2022-08-19T00:07:20.526Z,26.12
2022-08-19T00:08:22.007Z,26.11
2022-08-19T00:09:23.842Z,26.11
2022-08-19T00:10:25.453Z,26.10
2022-08-19T00:11:28.568Z,26.10
2022-08-19T00:12:30.109Z,26.10
2022-08-19T00:13:31.611Z,26.10
2022-08-19T00:14:33.205Z,26.09
2022-08-19T00:15:35.047Z,26.09
2022-08-19T00:16:37.147Z,26.09
2022-08-19T00:17:42.017Z,26.09
2022-08-19T00:18:43.656Z,26.08
2022-08-19T00:19:45.133Z,26.09
2022-08-19T00:20:46.714Z,26.08
2022-08-19T00:21:48.276Z,26.08
2022-08-19T00:22:49.846Z,26.08
2022-08-19T00:23:51.391Z,26.08
2022-08-19T00:24:52.890Z,26.07
2022-08-19T00:25:54.471Z,26.08
2022-08-19T00:26:56.168Z,26.06
2022-08-19T00:27:57.683Z,26.07
2022-08-19T00:29:00.288Z,26.08
2022-08-19T00:30:03.668Z,26.06
2022-08-19T00:31:05.583Z,26.06
2022-08-19T00:32:07.611Z,26.06
2022-08-19T00:33:12.299Z,26.06
2022-08-19T00:34:14.029Z,26.05
2022-08-19T00:35:15.554Z,26.04
2022-08-19T00:36:17.072Z,26.04
2022-08-19T00:37:19.003Z,26.04
2022-08-19T00:38:29.619Z,26.04
2022-08-19T00:39:38.767Z,26.04
2022-08-19T00:40:40.304Z,26.02
2022-08-19T00:41:41.950Z,26.01
2022-08-19T00:42:44.023Z,26.01
2022-08-19T00:43:50.602Z,26.01
2022-08-19T00:44:52.324Z,26.01
2022-08-19T00:45:54.015Z,26.01
2022-08-19T00:46:58.452Z,26.01
2022-08-19T00:48:04.388Z,26.01
2022-08-19T00:49:16.081Z,25.99
2022-08-19T00:50:18.309Z,26.00
2022-08-19T00:51:20.115Z,25.99
2022-08-19T00:52:23.788Z,25.99
2022-08-19T00:53:26.927Z,25.99
2022-08-19T00:54:31.059Z,25.98
2022-08-19T00:55:32.879Z,25.98
2022-08-19T00:56:34.482Z,25.98
2022-08-19T00:57:36.575Z,25.99
2022-08-19T00:58:38.123Z,25.97
2022-08-19T01:00:00.477Z,25.97
2022-08-19T01:01:01.888Z,25.96
2022-08-19T01:02:03.397Z,25.96
2022-08-19T01:03:08.578Z,25.95
2022-08-19T01:04:10.201Z,25.94
2022-08-19T01:05:12.677Z,25.95
2022-08-19T01:06:14.337Z,25.94
2022-08-19T01:07:21.546Z,25.95
2022-08-19T01:08:23.134Z,25.95
2022-08-19T01:09:25.235Z,25.95
2022-08-19T01:10:27.706Z,25.95
2022-08-19T01:11:29.718Z,25.94
2022-08-19T01:12:31.239Z,25.94
2022-08-19T01:13:49.190Z,25.94
2022-08-19T01:14:51.231Z,25.91
2022-08-19T01:16:02.574Z,25.93
2022-08-19T01:17:04.297Z,25.92
2022-08-19T01:18:08.891Z,25.93
2022-08-19T01:19:15.559Z,25.92
2022-08-19T01:20:18.638Z,25.93
2022-08-19T01:21:20.158Z,25.92
2022-08-19T01:22:30.097Z,25.92
2022-08-19T01:23:45.102Z,25.91
2022-08-19T01:24:50.001Z,25.91
2022-08-19T01:25:52.447Z,25.90
2022-08-19T01:26:54.055Z,25.91
2022-08-19T01:27:57.009Z,25.90
2022-08-19T01:29:05.367Z,25.90
2022-08-19T01:30:07.835Z,25.89
2022-08-19T01:31:12.419Z,25.90
2022-08-19T01:32:33.097Z,25.89
2022-08-19T01:33:35.775Z,25.89
2022-08-19T01:34:37.287Z,25.89
2022-08-19T01:35:38.924Z,25.89
2022-08-19T01:36:43.019Z,25.88
2022-08-19T01:37:48.486Z,25.87
2022-08-19T01:38:50.468Z,25.87
2022-08-19T01:39:52.023Z,25.86
2022-08-19T01:40:53.635Z,25.87
2022-08-19T01:41:55.349Z,25.86
2022-08-19T01:42:56.828Z,25.87
2022-08-19T01:44:13.324Z,25.86
2022-08-19T01:45:21.105Z,25.85
2022-08-19T01:46:25.048Z,25.85
2022-08-19T01:47:26.848Z,25.84
2022-08-19T01:48:30.259Z,25.84
2022-08-19T01:49:31.795Z,25.84
2022-08-19T01:50:33.544Z,25.83
2022-08-19T01:51:39.643Z,25.83
2022-08-19T01:52:42.101Z,25.82
2022-08-19T01:53:43.568Z,25.82
2022-08-19T01:54:45.992Z,25.82
2022-08-19T01:55:48.219Z,25.81
2022-08-19T01:56:50.677Z,25.81
2022-08-19T01:57:53.287Z,25.81
2022-08-19T01:58:55.647Z,25.81
2022-08-19T01:59:57.751Z,25.81
2022-08-19T02:00:59.511Z,25.80
2022-08-19T02:02:01.064Z,25.80
2022-08-19T02:03:02.665Z,25.81
2022-08-19T02:04:04.173Z,25.80
2022-08-19T02:05:05.809Z,25.80
2022-08-19T02:06:12.511Z,25.80
2022-08-19T02:07:14.029Z,25.80
2022-08-19T02:08:15.493Z,25.79
2022-08-19T02:09:17.681Z,25.79
2022-08-19T02:10:20.520Z,25.79
2022-08-19T02:11:22.989Z,25.79
2022-08-19T02:12:24.463Z,25.78
2022-08-19T02:13:26.638Z,25.79
2022-08-19T02:14:28.371Z,25.79
2022-08-19T02:15:29.893Z,25.78
2022-08-19T02:16:31.642Z,25.80
2022-08-19T02:17:33.196Z,25.79
2022-08-19T02:18:34.837Z,25.78
2022-08-19T02:19:36.358Z,25.79
2022-08-19T02:20:41.084Z,25.78
2022-08-19T02:21:42.560Z,25.78
2022-08-19T02:22:44.103Z,25.77
2022-08-19T02:23:45.618Z,25.77
2022-08-19T02:24:47.476Z,25.76
2022-08-19T02:25:49.129Z,25.76
2022-08-19T02:26:50.595Z,25.75
2022-08-19T02:27:52.078Z,25.74
2022-08-19T02:28:54.000Z,25.74
2022-08-19T02:29:55.518Z,25.74
2022-08-19T02:30:57.167Z,25.73
2022-08-19T02:31:59.147Z,25.73
2022-08-19T02:33:00.842Z,25.71
2022-08-19T02:34:02.491Z,25.72
2022-08-19T02:35:04.322Z,25.70
2022-08-19T02:36:14.211Z,25.71
2022-08-19T02:37:35.663Z,25.71
2022-08-19T02:38:38.037Z,25.71
2022-08-19T02:39:39.603Z,25.69
2022-08-19T02:40:41.206Z,25.69
2022-08-19T02:41:42.693Z,25.69
2022-08-19T02:42:44.366Z,25.69
2022-08-19T02:44:26.477Z,25.68
2022-08-19T02:45:45.811Z,25.68
2022-08-19T02:46:47.763Z,25.67
2022-08-19T02:47:49.297Z,25.67
2022-08-19T02:48:51.333Z,25.67
2022-08-19T02:49:52.811Z,25.66
2022-08-19T02:50:56.211Z,25.67
2022-08-19T02:51:57.791Z,25.67
2022-08-19T02:52:59.684Z,25.66
2022-08-19T02:54:01.342Z,25.67
2022-08-19T02:55:03.024Z,25.66
2022-08-19T02:56:08.759Z,25.66
2022-08-19T02:57:10.293Z,25.66
2022-08-19T02:58:11.799Z,25.66
2022-08-19T02:59:13.460Z,25.65
2022-08-19T03:00:15.251Z,25.66
2022-08-19T03:01:22.361Z,25.66
2022-08-19T03:02:23.970Z,25.65
2022-08-19T03:03:25.506Z,25.65
2022-08-19T03:04:27.145Z,25.65
2022-08-19T03:05:48.204Z,25.65
2022-08-19T03:06:50.282Z,25.63
2022-08-19T03:07:51.831Z,25.63
2022-08-19T03:08:53.414Z,25.63
2022-08-19T03:09:54.943Z,25.62
2022-08-19T03:10:56.455Z,25.62
2022-08-19T03:11:58.015Z,25.63
2022-08-19T03:12:59.542Z,25.63
2022-08-19T03:14:07.016Z,25.63
2022-08-19T03:15:08.877Z,25.63
2022-08-19T03:16:10.874Z,25.63
2022-08-19T03:17:13.670Z,25.63
2022-08-19T03:18:15.345Z,25.64
2022-08-19T03:19:17.404Z,25.63
2022-08-19T03:20:18.917Z,25.63
2022-08-19T03:21:24.889Z,25.63
2022-08-19T03:22:26.466Z,25.62
2022-08-19T03:23:27.981Z,25.62
2022-08-19T03:24:29.502Z,25.62
2022-08-19T03:25:31.192Z,25.62
2022-08-19T03:26:32.686Z,25.63
2022-08-19T03:27:34.734Z,25.62
2022-08-19T03:28:36.410Z,25.63
2022-08-19T03:29:43.254Z,25.63
2022-08-19T03:30:57.077Z,25.62
2022-08-19T03:32:04.850Z,25.62
2022-08-19T03:33:06.816Z,25.62
2022-08-19T03:34:12.619Z,25.62
2022-08-19T03:35:14.922Z,25.63
2022-08-19T03:36:17.537Z,25.62
2022-08-19T03:37:19.039Z,25.62
2022-08-19T03:38:20.582Z,25.62
2022-08-19T03:39:22.505Z,25.61
2022-08-19T03:40:24.003Z,25.61
2022-08-19T03:41:26.359Z,25.61
2022-08-19T03:42:48.920Z,25.61
2022-08-19T03:43:51.121Z,25.61
2022-08-19T03:44:53.630Z,25.61
2022-08-19T03:46:03.542Z,25.62
2022-08-19T03:47:05.405Z,25.62
2022-08-19T03:48:07.000Z,25.61
2022-08-19T03:49:09.465Z,25.62
2022-08-19T03:50:11.788Z,25.61
2022-08-19T03:51:30.856Z,25.62
2022-08-19T03:52:32.770Z,25.62
2022-08-19T03:53:34.563Z,25.61
2022-08-19T03:54:36.234Z,25.61
2022-08-19T03:55:41.666Z,25.62
2022-08-19T03:56:43.814Z,25.61
2022-08-19T03:57:46.747Z,25.58
2022-08-19T03:58:48.372Z,25.62
2022-08-19T03:59:49.912Z,25.60
2022-08-19T04:00:51.474Z,25.61
2022-08-19T04:01:56.405Z,25.60
2022-08-19T04:03:00.265Z,25.59
2022-08-19T04:04:03.357Z,25.60
2022-08-19T04:05:07.511Z,25.59
2022-08-19T04:06:12.199Z,25.59
2022-08-19T04:07:17.113Z,25.58
2022-08-19T04:08:21.320Z,25.59
2022-08-19T04:09:22.835Z,25.60
2022-08-19T04:10:25.104Z,25.59
2022-08-19T04:11:43.796Z,25.59
2022-08-19T04:12:47.371Z,25.59
2022-08-19T04:13:52.086Z,25.59
2022-08-19T04:14:53.558Z,25.59
2022-08-19T04:15:55.082Z,25.58
2022-08-19T04:16:56.681Z,25.58
2022-08-19T04:17:58.195Z,25.58
2022-08-19T04:19:00.902Z,25.58
2022-08-19T04:20:02.419Z,25.57
2022-08-19T04:21:08.708Z,25.58
2022-08-19T04:22:11.709Z,25.58
2022-08-19T04:23:13.637Z,25.57
2022-08-19T04:24:15.360Z,25.58
2022-08-19T04:25:16.923Z,25.57
2022-08-19T04:26:19.592Z,25.57
2022-08-19T04:27:21.347Z,25.57
2022-08-19T04:28:24.413Z,25.58
2022-08-19T04:29:26.439Z,25.57
2022-08-19T04:30:28.077Z,25.57
2022-08-19T04:31:31.725Z,25.57
2022-08-19T04:32:33.230Z,25.56
2022-08-19T04:33:34.718Z,25.55
2022-08-19T04:34:36.254Z,25.55
2022-08-19T04:35:59.246Z,25.55
2022-08-19T04:37:00.780Z,25.53
2022-08-19T04:38:02.286Z,25.51
2022-08-19T04:39:05.286Z,25.52
2022-08-19T04:40:25.713Z,25.50
2022-08-19T04:41:46.162Z,25.49
2022-08-19T04:42:47.755Z,25.48
2022-08-19T04:43:49.685Z,25.47
2022-08-19T04:44:51.698Z,25.47
2022-08-19T04:45:56.478Z,25.46
2022-08-19T04:47:02.487Z,25.47
2022-08-19T04:48:26.254Z,25.45
2022-08-19T04:49:28.990Z,25.45
2022-08-19T04:50:30.460Z,25.45
2022-08-19T04:51:32.405Z,25.43
2022-08-19T04:52:34.193Z,25.43
2022-08-19T04:53:37.925Z,25.42
2022-08-19T04:54:40.094Z,25.43
2022-08-19T04:55:42.304Z,25.42
2022-08-19T04:56:44.755Z,25.42
2022-08-19T04:57:46.288Z,25.43
2022-08-19T04:58:48.014Z,25.43
2022-08-19T04:59:49.571Z,25.42
2022-08-19T05:00:51.207Z,25.42
2022-08-19T05:01:52.813Z,25.41
2022-08-19T05:02:54.498Z,25.40
2022-08-19T05:03:57.303Z,25.39
2022-08-19T05:05:00.608Z,25.39
2022-08-19T05:06:08.648Z,25.39
2022-08-19T05:07:10.879Z,25.39
2022-08-19T05:08:13.042Z,25.38
2022-08-19T05:09:17.163Z,25.38
2022-08-19T05:10:18.779Z,25.37
2022-08-19T05:11:25.885Z,25.38
2022-08-19T05:12:29.730Z,25.39
2022-08-19T05:13:31.320Z,25.39
2022-08-19T05:14:32.839Z,25.37
2022-08-19T05:15:34.457Z,25.39
2022-08-19T05:16:35.956Z,25.38
2022-08-19T05:17:39.040Z,25.37
2022-08-19T05:18:59.947Z,25.36
2022-08-19T05:20:20.065Z,25.36
2022-08-19T05:21:40.071Z,25.37
2022-08-19T05:22:41.989Z,25.38
2022-08-19T05:23:43.758Z,25.39
2022-08-19T05:25:09.179Z,25.36
2022-08-19T05:26:06.806Z,25.38
2022-08-19T05:27:08.331Z,25.36
2022-08-19T05:28:10.010Z,25.39
2022-08-19T05:29:11.539Z,25.40
2022-08-19T05:30:13.136Z,25.38
2022-08-19T05:31:14.729Z,25.40
2022-08-19T05:32:16.237Z,25.41
2022-08-19T05:33:18.320Z,25.41
2022-08-19T05:34:22.623Z,25.41
2022-08-19T05:35:25.056Z,25.43
2022-08-19T05:36:27.691Z,25.43
2022-08-19T05:37:29.197Z,25.43
2022-08-19T05:38:31.027Z,25.45
2022-08-19T05:39:33.714Z,25.46
2022-08-19T05:40:37.034Z,25.45
2022-08-19T05:41:42.403Z,25.46
2022-08-19T05:42:43.915Z,25.47
2022-08-19T05:43:45.422Z,25.48
2022-08-19T05:44:48.011Z,25.49
2022-08-19T05:45:51.628Z,25.50
2022-08-19T05:46:53.933Z,25.51
2022-08-19T05:47:55.437Z,25.44
2022-08-19T05:48:59.554Z,25.53
2022-08-19T05:50:02.962Z,25.52
2022-08-19T05:51:07.450Z,25.54
2022-08-19T05:52:11.694Z,25.55
2022-08-19T05:53:13.378Z,25.55
2022-08-19T05:54:14.958Z,25.57
2022-08-19T05:55:16.435Z,25.59
2022-08-19T05:56:18.611Z,25.60
2022-08-19T05:57:20.115Z,25.61
2022-08-19T05:58:23.119Z,25.62
2022-08-19T05:59:26.079Z,25.64
2022-08-19T06:00:27.718Z,25.66
2022-08-19T06:01:29.323Z,25.66
2022-08-19T06:02:31.773Z,25.69
2022-08-19T06:03:34.237Z,25.69
2022-08-19T06:04:35.741Z,25.72
2022-08-19T06:05:44.766Z,25.74
2022-08-19T06:06:52.662Z,25.75
2022-08-19T06:07:54.401Z,25.77
2022-08-19T06:08:55.979Z,25.80
2022-08-19T06:10:00.741Z,25.83
2022-08-19T06:11:16.249Z,25.84
2022-08-19T06:12:17.816Z,25.85
2022-08-19T06:13:20.699Z,25.85
2022-08-19T06:14:25.837Z,25.87
2022-08-19T06:15:29.761Z,25.88
2022-08-19T06:16:34.872Z,25.91
2022-08-19T06:17:36.646Z,25.93
2022-08-19T06:18:38.224Z,25.94
2022-08-19T06:19:40.614Z,25.95
2022-08-19T06:20:55.459Z,25.97
2022-08-19T06:21:57.633Z,25.97
2022-08-19T06:23:00.086Z,25.99
2022-08-19T06:24:01.625Z,26.01
2022-08-19T06:25:03.979Z,26.04
2022-08-19T06:26:05.519Z,26.06
2022-08-19T06:27:07.097Z,26.08
2022-08-19T06:28:15.179Z,26.11
2022-08-19T06:29:23.970Z,26.14
2022-08-19T06:30:25.667Z,26.16
2022-08-19T06:31:27.984Z,26.18
2022-08-19T06:32:29.779Z,26.20
2022-08-19T06:33:31.360Z,26.21
2022-08-19T06:34:33.671Z,26.23
2022-08-19T06:35:39.279Z,26.24
2022-08-19T06:36:42.814Z,26.24
2022-08-19T06:37:45.247Z,26.25
2022-08-19T06:38:46.789Z,26.26
2022-08-19T06:39:48.363Z,26.26
2022-08-19T06:40:49.910Z,26.29
2022-08-19T06:41:55.446Z,26.30
2022-08-19T06:43:00.813Z,26.30
2022-08-19T06:44:04.156Z,26.33
2022-08-19T06:45:09.485Z,26.33
2022-08-19T06:46:12.856Z,26.36
2022-08-19T06:47:23.451Z,26.37
2022-08-19T06:48:26.990Z,26.39
2022-08-19T06:49:31.891Z,26.40
2022-08-19T06:50:34.155Z,26.41
2022-08-19T06:51:42.620Z,26.43
2022-08-19T06:52:45.155Z,26.45
2022-08-19T06:53:48.082Z,26.47
2022-08-19T06:54:56.127Z,26.49
2022-08-19T06:56:01.564Z,26.53
2022-08-19T06:57:03.177Z,26.53
2022-08-19T06:58:05.080Z,26.56
2022-08-19T06:59:10.284Z,26.59
2022-08-19T07:00:14.214Z,26.59
2022-08-19T07:01:15.822Z,26.61
2022-08-19T07:03:23.751Z,26.67
2022-08-19T07:04:31.241Z,26.69
2022-08-19T07:05:32.805Z,26.71
2022-08-19T07:06:44.111Z,26.74
2022-08-19T07:07:47.658Z,26.77
2022-08-19T07:08:49.334Z,26.80
2022-08-19T07:09:51.854Z,26.82
2022-08-19T07:11:00.190Z,26.82
2022-08-19T07:12:02.368Z,26.85
2022-08-19T07:13:09.190Z,26.86
2022-08-19T07:14:19.292Z,26.87
2022-08-19T07:15:22.199Z,26.89
2022-08-19T07:16:28.888Z,26.93
2022-08-19T07:17:31.040Z,26.96
2022-08-19T07:18:32.579Z,26.98
2022-08-19T07:19:34.717Z,27.02
2022-08-19T07:20:36.424Z,27.04
2022-08-19T07:21:38.234Z,27.06
2022-08-19T07:22:39.771Z,27.08
2022-08-19T07:23:41.459Z,27.11
2022-08-19T07:24:43.011Z,27.13
2022-08-19T07:25:53.474Z,27.16
2022-08-19T07:26:57.774Z,27.18
2022-08-19T07:27:59.581Z,27.20
2022-08-19T07:29:03.151Z,27.24
2022-08-19T07:30:06.129Z,27.26
2022-08-19T07:31:08.003Z,27.26
2022-08-19T07:32:13.557Z,27.30
2022-08-19T07:33:15.161Z,27.32
2022-08-19T07:34:16.760Z,27.18
2022-08-19T07:35:20.474Z,27.37
2022-08-19T07:36:23.319Z,27.39
2022-08-19T07:37:33.035Z,27.42
2022-08-19T07:38:35.132Z,27.44
2022-08-19T07:39:36.834Z,27.48
2022-08-19T07:40:38.378Z,27.51
2022-08-19T07:41:40.332Z,27.51
2022-08-19T07:42:42.250Z,27.54
2022-08-19T07:43:44.441Z,27.56
2022-08-19T07:44:50.014Z,27.59
2022-08-19T07:45:53.842Z,27.60
2022-08-19T07:46:56.612Z,27.64
2022-08-19T07:47:58.873Z,27.66
2022-08-19T07:49:01.421Z,27.69
2022-08-19T07:50:05.467Z,27.72
2022-08-19T07:51:09.766Z,27.74
2022-08-19T07:52:11.391Z,27.78
2022-08-19T07:53:13.325Z,27.80
2022-08-19T07:54:14.835Z,27.82
2022-08-19T07:55:41.265Z,27.83
2022-08-19T07:56:38.304Z,27.87
2022-08-19T07:57:39.897Z,27.90
2022-08-19T07:58:42.726Z,27.93
2022-08-19T07:59:44.247Z,27.96
2022-08-19T08:00:46.388Z,28.01
2022-08-19T08:01:48.307Z,28.05
2022-08-19T08:02:49.857Z,28.09
2022-08-19T08:04:11.709Z,28.11
2022-08-19T08:05:34.886Z,28.13
2022-08-19T08:06:55.752Z,28.19
2022-08-19T08:08:15.722Z,28.24
2022-08-19T08:09:24.191Z,28.27
2022-08-19T08:10:26.588Z,28.32
2022-08-19T08:11:28.179Z,28.37
2022-08-19T08:12:35.109Z,28.39
2022-08-19T08:13:39.029Z,28.41
2022-08-19T08:14:44.076Z,28.44
2022-08-19T08:15:45.711Z,28.48
2022-08-19T08:16:47.522Z,28.51
2022-08-19T08:17:51.769Z,28.57
2022-08-19T08:18:53.444Z,28.61
2022-08-19T08:19:55.619Z,28.64
2022-08-19T08:20:57.218Z,28.66
2022-08-19T08:21:59.194Z,28.70
2022-08-19T08:23:19.501Z,28.74
2022-08-19T08:24:21.354Z,28.82
2022-08-19T08:25:24.910Z,28.84
2022-08-19T08:26:26.467Z,28.86
2022-08-19T08:27:32.115Z,28.90
2022-08-19T08:28:34.348Z,28.96
2022-08-19T08:29:35.913Z,28.99
2022-08-19T08:30:38.146Z,29.02
2022-08-19T08:31:42.876Z,29.07
2022-08-19T08:32:45.883Z,29.11
2022-08-19T08:33:48.039Z,29.16
2022-08-19T08:34:50.058Z,29.21
2022-08-19T08:35:53.987Z,29.24
2022-08-19T08:36:55.466Z,29.27
2022-08-19T08:37:57.702Z,29.29
2022-08-19T08:38:59.310Z,29.34
2022-08-19T08:40:03.419Z,29.37
2022-08-19T08:41:07.748Z,29.42
2022-08-19T08:42:17.886Z,29.45
2022-08-19T08:43:22.834Z,29.50
2022-08-19T08:44:26.252Z,29.54
2022-08-19T08:45:27.741Z,29.57
2022-08-19T08:46:41.129Z,29.64
2022-08-19T08:47:43.224Z,29.68
2022-08-19T08:48:52.715Z,29.71
2022-08-19T08:50:01.371Z,29.76
2022-08-19T08:51:04.357Z,29.80
2022-08-19T08:52:06.411Z,29.82
2022-08-19T08:53:07.971Z,29.85
2022-08-19T08:54:11.011Z,29.89
2022-08-19T08:55:14.743Z,29.93
2022-08-19T08:56:16.882Z,29.98
2022-08-19T08:57:41.051Z,30.01
2022-08-19T08:58:46.695Z,30.08
2022-08-19T08:59:51.733Z,30.13
2022-08-19T09:00:53.280Z,30.18
2022-08-19T09:01:54.916Z,30.23
2022-08-19T09:02:56.865Z,30.26
2022-08-19T09:04:03.064Z,30.30
2022-08-19T09:05:05.529Z,30.34
2022-08-19T09:06:17.009Z,30.37
2022-08-19T09:07:38.838Z,30.42
2022-08-19T09:08:47.430Z,30.47
2022-08-19T09:09:50.063Z,30.52
2022-08-19T09:10:55.142Z,30.55
2022-08-19T09:11:57.526Z,30.57
2022-08-19T09:13:12.053Z,30.59
2022-08-19T09:14:50.713Z,30.62
2022-08-19T09:16:15.903Z,30.68
2022-08-19T09:17:17.409Z,30.74
2022-08-19T09:18:19.665Z,30.77
2022-08-19T09:19:22.219Z,30.82
2022-08-19T09:20:24.245Z,30.83
2022-08-19T09:21:33.134Z,30.86
2022-08-19T09:22:36.355Z,30.91
2022-08-19T09:23:38.064Z,30.94
2022-08-19T09:24:40.773Z,30.97
2022-08-19T09:25:42.318Z,31.01
2022-08-19T09:26:52.511Z,31.04
2022-08-19T09:27:55.273Z,31.08
2022-08-19T09:29:06.120Z,31.13
2022-08-19T09:30:08.722Z,31.16
2022-08-19T09:31:13.503Z,31.18
2022-08-19T09:32:26.969Z,31.21
2022-08-19T09:33:28.698Z,31.27
2022-08-19T09:34:32.643Z,31.29
2022-08-19T09:35:50.166Z,31.33
2022-08-19T09:36:56.276Z,31.38
2022-08-19T09:37:59.517Z,31.41
2022-08-19T09:39:01.540Z,31.44
2022-08-19T09:40:04.113Z,31.47
2022-08-19T09:41:07.144Z,31.49
2022-08-19T09:42:16.575Z,31.53
2022-08-19T09:43:32.934Z,31.57
2022-08-19T09:44:35.827Z,31.61
2022-08-19T09:45:37.342Z,31.62
2022-08-19T09:46:38.849Z,31.66
2022-08-19T09:47:40.575Z,31.69
2022-08-19T09:48:43.216Z,31.72
2022-08-19T09:49:44.808Z,31.78
2022-08-19T09:50:51.885Z,31.81
2022-08-19T09:51:57.181Z,31.83
2022-08-19T09:52:59.032Z,31.87
2022-08-19T09:54:01.331Z,31.94
2022-08-19T09:55:09.775Z,31.96
2022-08-19T09:56:11.381Z,32.00
2022-08-19T09:57:12.891Z,32.06
2022-08-19T09:58:14.379Z,32.11
2022-08-19T09:59:15.951Z,32.14
2022-08-19T10:00:17.587Z,32.16
2022-08-19T10:01:23.911Z,32.19
2022-08-19T10:02:25.879Z,32.22
2022-08-19T10:03:30.702Z,32.26
2022-08-19T10:04:51.386Z,32.29
2022-08-19T10:05:54.482Z,32.31
2022-08-19T10:06:57.580Z,32.35
2022-08-19T10:08:01.774Z,32.38
2022-08-19T10:09:09.002Z,32.40
2022-08-19T10:10:11.166Z,32.40
2022-08-19T10:11:28.048Z,32.45
2022-08-19T10:12:34.697Z,32.47
2022-08-19T10:13:36.932Z,32.49
2022-08-19T10:14:38.434Z,32.49
2022-08-19T10:15:47.089Z,32.48
2022-08-19T10:16:50.341Z,32.50
2022-08-19T10:17:55.063Z,32.51
2022-08-19T10:18:59.100Z,32.54
2022-08-19T10:20:01.033Z,32.58
2022-08-19T10:21:09.401Z,32.61
2022-08-19T10:22:14.730Z,32.66
2022-08-19T10:23:16.762Z,32.68
2022-08-19T10:24:18.523Z,32.70
2022-08-19T10:25:20.123Z,32.70
2022-08-19T10:26:22.617Z,32.69
2022-08-19T10:27:28.146Z,32.63
2022-08-19T10:28:34.679Z,32.73
2022-08-19T10:29:46.532Z,32.74
2022-08-19T10:30:48.647Z,32.78
2022-08-19T10:32:01.253Z,32.79
2022-08-19T10:33:08.545Z,32.83
2022-08-19T10:34:27.130Z,32.88
2022-08-19T10:35:30.487Z,32.95
2022-08-19T10:36:32.947Z,32.96
2022-08-19T10:37:37.857Z,33.02
2022-08-19T10:38:56.510Z,33.07
2022-08-19T10:39:58.548Z,33.08
2022-08-19T10:41:07.700Z,33.10
2022-08-19T10:42:11.442Z,33.10
2022-08-19T10:43:13.050Z,33.14
2022-08-19T10:44:14.722Z,33.17
2022-08-19T10:45:16.295Z,33.22
2022-08-19T10:46:17.802Z,33.23
2022-08-19T10:47:25.557Z,33.23
2022-08-19T10:48:27.806Z,33.28
2022-08-19T10:49:29.297Z,33.32
2022-08-19T10:50:49.577Z,33.36
2022-08-19T10:52:10.291Z,33.39
2022-08-19T10:53:14.128Z,33.39
2022-08-19T10:54:15.762Z,33.37
2022-08-19T10:55:42.660Z,33.35
2022-08-19T10:56:52.823Z,33.32
2022-08-19T10:58:02.187Z,33.34
2022-08-19T10:59:04.581Z,33.39
2022-08-19T11:00:06.518Z,33.42
2022-08-19T11:01:08.082Z,33.46
2022-08-19T11:02:13.975Z,33.49
2022-08-19T11:03:15.463Z,33.48
2022-08-19T11:04:18.563Z,33.44
2022-08-19T11:05:20.087Z,33.42
2022-08-19T11:06:21.885Z,33.47
2022-08-19T11:07:26.103Z,33.47
2022-08-19T11:08:27.767Z,33.50
2022-08-19T11:09:34.066Z,33.53
2022-08-19T11:10:36.075Z,33.55
2022-08-19T11:11:41.180Z,33.56
2022-08-19T11:12:42.791Z,33.57
2022-08-19T11:13:45.433Z,33.56
2022-08-19T11:14:46.923Z,33.59
2022-08-19T11:15:48.458Z,33.61
2022-08-19T11:16:50.024Z,33.61
2022-08-19T11:17:55.044Z,33.60
2022-08-19T11:18:59.329Z,33.65
2022-08-19T11:20:04.182Z,33.64
2022-08-19T11:21:06.716Z,33.66
2022-08-19T11:22:09.648Z,33.69
2022-08-19T11:23:12.698Z,33.71
2022-08-19T11:24:16.051Z,33.73
2022-08-19T11:25:18.106Z,33.76
2022-08-19T11:26:19.922Z,33.78
2022-08-19T11:27:21.468Z,33.78
2022-08-19T11:28:22.969Z,33.79
2022-08-19T11:29:28.603Z,33.79
2022-08-19T11:30:30.126Z,33.79
2022-08-19T11:31:32.255Z,33.83
2022-08-19T11:32:34.755Z,33.82
2022-08-19T11:33:36.270Z,33.81
2022-08-19T11:34:37.839Z,33.83
2022-08-19T11:35:40.039Z,33.84
2022-08-19T11:36:42.056Z,33.85
2022-08-19T11:37:43.588Z,33.89
2022-08-19T11:38:45.874Z,33.90
2022-08-19T11:39:51.839Z,33.91
2022-08-19T11:40:56.440Z,33.92
2022-08-19T11:42:00.830Z,33.92
2022-08-19T11:43:02.338Z,33.92
2022-08-19T11:44:04.201Z,33.93
2022-08-19T11:45:05.919Z,33.90
2022-08-19T11:46:10.948Z,33.88
2022-08-19T11:47:12.699Z,33.85
2022-08-19T11:48:14.217Z,33.87
2022-08-19T11:49:16.338Z,33.85
2022-08-19T11:50:18.307Z,33.86
2022-08-19T11:51:21.341Z,33.87
2022-08-19T11:52:22.899Z,33.88
2022-08-19T11:53:24.505Z,33.85
2022-08-19T11:54:26.072Z,33.87
2022-08-19T11:55:27.711Z,33.91
2022-08-19T11:56:29.234Z,33.91
2022-08-19T11:57:30.744Z,33.94
2022-08-19T11:58:32.314Z,33.94
2022-08-19T11:59:33.811Z,33.97
2022-08-19T12:00:38.563Z,33.96
2022-08-19T12:01:43.445Z,33.97
2022-08-19T12:02:44.970Z,33.98
2022-08-19T12:03:46.849Z,33.93
2022-08-19T12:04:48.843Z,33.92
2022-08-19T12:05:50.922Z,33.89
2022-08-19T12:06:52.502Z,33.91
2022-08-19T12:07:55.488Z,33.84
2022-08-19T12:08:57.870Z,33.81
2022-08-19T12:10:00.154Z,33.81
2022-08-19T12:11:04.678Z,33.82
2022-08-19T12:12:09.642Z,33.85
2022-08-19T12:13:11.408Z,33.88
2022-08-19T12:14:15.038Z,33.90
2022-08-19T12:15:16.843Z,33.92
2022-08-19T12:16:19.612Z,33.95
2022-08-19T12:17:21.098Z,33.99
2022-08-19T12:18:22.593Z,34.02
2022-08-19T12:19:25.545Z,34.04
2022-08-19T12:20:27.254Z,34.07
2022-08-19T12:21:29.680Z,34.08
2022-08-19T12:22:31.658Z,34.10
2022-08-19T12:23:33.339Z,34.11
2022-08-19T12:24:35.766Z,34.10
2022-08-19T12:25:37.795Z,34.09
2022-08-19T12:26:52.823Z,34.09
2022-08-19T12:27:57.504Z,34.14
2022-08-19T12:29:00.435Z,34.18
2022-08-19T12:30:02.723Z,34.19
2022-08-19T12:31:04.302Z,34.19
2022-08-19T12:32:05.802Z,34.22
2022-08-19T12:33:07.438Z,34.22
2022-08-19T12:34:09.323Z,34.22
2022-08-19T12:35:11.626Z,34.25
2022-08-19T12:36:13.644Z,34.26
2022-08-19T12:37:15.498Z,34.23
2022-08-19T12:38:17.035Z,34.21
2022-08-19T12:39:18.560Z,34.23
2022-08-19T12:40:20.741Z,34.26
2022-08-19T12:41:23.422Z,34.27
2022-08-19T12:42:25.034Z,34.27
2022-08-19T12:43:26.557Z,34.26
2022-08-19T12:44:29.143Z,34.28
2022-08-19T12:45:31.292Z,34.30
2022-08-19T12:46:32.753Z,34.33
2022-08-19T12:47:35.755Z,34.36
2022-08-19T12:48:42.793Z,34.38
2022-08-19T12:49:53.387Z,34.42
2022-08-19T12:50:57.443Z,34.43
2022-08-19T12:51:59.174Z,34.45
2022-08-19T12:53:00.728Z,34.45
2022-08-19T12:54:03.140Z,34.45
2022-08-19T12:55:05.887Z,34.46
2022-08-19T12:56:09.972Z,34.47
2022-08-19T12:57:14.512Z,34.48
2022-08-19T12:58:16.021Z,34.49
2022-08-19T12:59:19.008Z,34.48
2022-08-19T13:00:22.056Z,34.50
2022-08-19T13:01:23.622Z,34.50
2022-08-19T13:02:25.160Z,34.50
2022-08-19T13:03:30.193Z,34.49
2022-08-19T13:04:31.704Z,34.49
2022-08-19T13:05:34.438Z,34.47
2022-08-19T13:06:37.051Z,34.47
2022-08-19T13:07:39.598Z,34.49
2022-08-19T13:08:41.078Z,34.50
2022-08-19T13:09:45.643Z,34.45
2022-08-19T13:10:47.758Z,34.52
2022-08-19T13:11:49.264Z,34.51
2022-08-19T13:12:51.147Z,34.52
2022-08-19T13:13:52.829Z,34.55
2022-08-19T13:14:54.534Z,34.55
2022-08-19T13:16:00.555Z,34.55
2022-08-19T13:17:02.058Z,34.56
2022-08-19T13:18:03.662Z,34.56
2022-08-19T13:19:06.226Z,34.58
2022-08-19T13:20:10.842Z,34.61
2022-08-19T13:21:13.951Z,34.64
2022-08-19T13:22:15.449Z,34.66
2022-08-19T13:23:17.249Z,34.66
2022-08-19T13:24:19.180Z,34.69
2022-08-19T13:25:20.881Z,34.71
2022-08-19T13:26:22.447Z,34.73
2022-08-19T13:27:23.930Z,34.75
2022-08-19T13:28:29.046Z,34.77
2022-08-19T13:29:49.396Z,34.77
2022-08-19T13:31:09.630Z,34.77
2022-08-19T13:32:30.348Z,34.77
2022-08-19T13:33:34.847Z,34.78
2022-08-19T13:34:37.990Z,34.79
2022-08-19T13:35:39.724Z,34.82
2022-08-19T13:36:41.368Z,34.84
2022-08-19T13:37:42.962Z,34.83
2022-08-19T13:38:46.276Z,34.86
2022-08-19T13:39:48.367Z,34.84
2022-08-19T13:40:51.319Z,34.85
2022-08-19T13:41:52.915Z,34.84
2022-08-19T13:42:55.071Z,34.83
2022-08-19T13:43:56.549Z,34.84
2022-08-19T13:44:59.451Z,34.83
2022-08-19T13:46:01.495Z,34.80